Terminal Aerodrome Forecast
Issued by NWS Wilmington, OH

Current Version | Previous Version | Text Only | Print | Product List | Glossary Off
Versions: 1 2 3 4 5 6 7 8 9 10 11 12 13 14 15 16 17 18 19 20 21

212
FTUS41 KILN 201139
TAFCMH
TAF
KCMH 201139Z 2012/2112 19010KT P6SM BKN100 WS020/22045KT
     FM201400 21016G26KT P6SM SCT100
     FM202000 21015G23KT P6SM FEW045
     FM202300 18010KT P6SM SCT040
     FM210400 19012KT P6SM BKN040
     FM211000 19012KT P6SM VCSH BKN025 OVC040=

USA.gov is the U.S. government's official web portal to all federal, state and local government web resources and services.